createdAt,value
2019-05-03T00:01:27.772Z,69.32
2019-05-03T00:06:32.095Z,70.38
2019-05-03T00:11:35.592Z,71.67
2019-05-03T00:16:41.652Z,72.10
2019-05-03T00:21:45.209Z,72.27
2019-05-03T00:26:48.587Z,72.34
2019-05-03T00:31:52.034Z,73.41
2019-05-03T00:37:01.741Z,72.83
2019-05-03T00:42:06.696Z,73.13
2019-05-03T00:47:10.047Z,74.01
2019-05-03T00:52:13.392Z,73.72
2019-05-03T00:57:16.776Z,74.19
2019-05-03T01:02:22.207Z,74.07
2019-05-03T01:07:25.424Z,75.42
2019-05-03T01:12:28.847Z,76.04
2019-05-03T01:17:33.473Z,75.30
2019-05-03T01:22:36.826Z,77.45
2019-05-03T01:27:40.291Z,77.31
2019-05-03T01:32:43.668Z,76.76
2019-05-03T01:37:47.117Z,77.76
2019-05-03T01:42:51.851Z,78.09
2019-05-03T01:48:09.187Z,78.09
2019-05-03T01:53:14.177Z,77.41
2019-05-03T01:58:17.554Z,77.04
2019-05-03T02:03:28.390Z,75.23
2019-05-03T02:08:32.626Z,74.37
2019-05-03T02:13:36.082Z,74.36
2019-05-03T02:18:39.482Z,76.63
2019-05-03T02:23:42.816Z,76.62
2019-05-03T02:28:46.252Z,76.16
2019-05-03T02:33:49.594Z,76.56
2019-05-03T02:38:53.614Z,76.00
2019-05-03T02:43:58.533Z,74.58
2019-05-03T02:49:15.778Z,73.35
2019-05-03T02:54:19.132Z,72.77
2019-05-03T02:59:22.505Z,73.63
2019-05-03T03:04:27.251Z,74.02
2019-05-03T03:09:30.623Z,74.17
2019-05-03T03:14:36.247Z,74.41
2019-05-03T03:19:40.141Z,75.00
2019-05-03T03:24:46.131Z,75.62
2019-05-03T03:29:55.175Z,74.84
2019-05-03T03:35:11.296Z,75.41
2019-05-03T03:40:09.567Z,74.66
2019-05-03T03:45:13.052Z,76.03
2019-05-03T03:50:17.324Z,76.03
2019-05-03T03:55:21.907Z,75.49
2019-05-03T04:00:25.980Z,75.15
2019-05-03T04:05:29.492Z,75.21
2019-05-03T04:10:35.300Z,75.02
2019-05-03T04:15:45.891Z,75.23
2019-05-03T04:20:49.418Z,76.00
2019-05-03T04:25:52.822Z,75.86
2019-05-03T04:30:57.923Z,75.40
2019-05-03T04:36:01.327Z,76.41
2019-05-03T04:41:05.928Z,75.30
2019-05-03T04:46:11.220Z,77.91
2019-05-03T04:51:16.673Z,77.19
2019-05-03T04:56:19.760Z,76.34
2019-05-03T05:01:23.171Z,78.30
2019-05-03T05:06:26.543Z,77.01
2019-05-03T05:11:29.893Z,76.88
2019-05-03T05:16:35.561Z,77.12
2019-05-03T05:21:39.990Z,77.05
2019-05-03T05:26:50.663Z,77.01
2019-05-03T05:31:54.862Z,78.96
2019-05-03T05:36:58.269Z,77.06
2019-05-03T05:42:01.791Z,77.42
2019-05-03T05:47:09.439Z,77.97
2019-05-03T05:52:12.779Z,79.58
2019-05-03T05:57:26.812Z,79.38
2019-05-03T06:02:30.182Z,78.51
2019-05-03T06:07:51.669Z,78.07
2019-05-03T06:13:11.786Z,78.26
2019-05-03T06:18:19.597Z,77.82
2019-05-03T06:23:24.943Z,77.56
2019-05-03T06:28:29.908Z,76.88
2019-05-03T06:33:34.708Z,76.44
2019-05-03T06:38:38.212Z,76.41
2019-05-03T06:43:45.089Z,75.43
2019-05-03T06:48:46.676Z,74.51
2019-05-03T06:53:50.730Z,74.51
2019-05-03T06:58:55.151Z,74.20
2019-05-03T07:04:00.381Z,73.97
2019-05-03T07:09:07.059Z,73.25
2019-05-03T07:14:10.522Z,73.26
2019-05-03T07:19:14.748Z,72.08
2019-05-03T07:24:18.197Z,72.61
2019-05-03T07:29:21.553Z,71.50
2019-05-03T07:34:24.933Z,69.58
2019-05-03T07:39:28.398Z,68.73
2019-05-03T07:44:31.777Z,67.52
2019-05-03T07:49:35.783Z,67.99
2019-05-03T07:54:39.246Z,67.08
2019-05-03T07:59:42.704Z,66.93
2019-05-03T08:04:46.114Z,66.92
2019-05-03T08:09:49.472Z,66.99
2019-05-03T08:14:54.989Z,66.01
2019-05-03T08:19:57.935Z,65.35
2019-05-03T08:25:02.989Z,65.62
2019-05-03T08:30:09.628Z,65.84
2019-05-03T08:35:15.322Z,64.49
2019-05-03T08:40:21.114Z,66.06
2019-05-03T08:45:25.583Z,64.76
2019-05-03T08:50:29.032Z,64.46
2019-05-03T08:55:32.489Z,65.28
2019-05-03T09:00:38.332Z,64.00
2019-05-03T09:05:41.775Z,63.56
2019-05-03T09:10:54.532Z,62.67
2019-05-03T09:15:58.058Z,62.97
2019-05-03T09:21:01.474Z,63.10
2019-05-03T09:26:05.010Z,62.08
2019-05-03T09:31:08.546Z,61.64
2019-05-03T09:36:11.977Z,60.91
2019-05-03T09:41:15.351Z,59.98
2019-05-03T09:46:18.781Z,60.61
2019-05-03T09:51:22.204Z,60.91
2019-05-03T09:56:53.533Z,58.38
2019-05-03T10:01:48.621Z,58.30
2019-05-03T10:06:52.082Z,59.06
2019-05-03T10:11:55.473Z,59.45
2019-05-03T10:17:06.339Z,60.41
2019-05-03T10:22:15.349Z,60.46
2019-05-03T10:27:18.929Z,58.76
2019-05-03T10:32:38.977Z,56.38
2019-05-03T10:37:42.324Z,55.57
2019-05-03T10:42:45.689Z,54.32
2019-05-03T10:47:49.058Z,53.79
2019-05-03T10:53:09.200Z,53.52
2019-05-03T10:58:19.780Z,52.08
2019-05-03T11:03:23.217Z,50.89
2019-05-03T11:08:26.617Z,50.70
2019-05-03T11:13:29.949Z,51.99
2019-05-03T11:18:34.602Z,52.28
2019-05-03T11:23:38.043Z,49.52
2019-05-03T11:28:41.365Z,49.73
2019-05-03T11:33:45.694Z,49.65
2019-05-03T11:38:49.139Z,48.58
2019-05-03T11:43:52.494Z,47.41
2019-05-03T11:48:56.260Z,45.39
2019-05-03T11:53:59.803Z,44.49
2019-05-03T11:59:05.234Z,45.94
2019-05-03T12:04:08.419Z,46.17
2019-05-03T12:09:11.773Z,45.76
2019-05-03T12:14:15.596Z,46.00
2019-05-03T12:19:22.519Z,46.90
2019-05-03T12:24:26.306Z,45.01
2019-05-03T12:29:29.063Z,46.90
2019-05-03T12:34:34.988Z,47.52
2019-05-03T12:39:37.563Z,48.38
2019-05-03T12:44:40.907Z,47.66
2019-05-03T12:49:47.310Z,46.54
2019-05-03T12:54:50.676Z,45.50
2019-05-03T12:59:58.682Z,45.54
2019-05-03T13:05:02.109Z,44.89
2019-05-03T13:10:07.136Z,43.84
2019-05-03T13:15:11.128Z,43.39
2019-05-03T13:20:15.561Z,44.08
2019-05-03T13:25:18.999Z,42.36
2019-05-03T13:30:22.452Z,42.67
2019-05-03T13:35:25.835Z,43.24
2019-05-03T13:40:29.434Z,43.14
2019-05-03T13:45:32.769Z,40.54
2019-05-03T13:50:36.156Z,40.48
2019-05-03T13:55:39.499Z,41.53
2019-05-03T14:00:45.152Z,41.73
2019-05-03T14:05:48.235Z,42.22
2019-05-03T14:10:51.592Z,42.07
2019-05-03T14:15:55.039Z,40.83
2019-05-03T14:21:12.053Z,41.14
2019-05-03T14:26:15.409Z,41.42
2019-05-03T14:31:18.749Z,42.19
2019-05-03T14:36:22.098Z,42.43
2019-05-03T14:41:25.660Z,43.13
2019-05-03T14:46:33.115Z,42.91
2019-05-03T14:51:34.911Z,44.46
2019-05-03T14:56:45.858Z,45.39
2019-05-03T15:01:50.824Z,44.83
2019-05-03T15:06:54.965Z,45.35
2019-05-03T15:11:59.566Z,45.53
2019-05-03T15:17:05.148Z,45.36
2019-05-03T15:22:08.056Z,45.64
2019-05-03T15:27:11.458Z,45.45
2019-05-03T15:32:15.510Z,45.90
2019-05-03T15:37:19.037Z,45.91
2019-05-03T15:42:23.556Z,45.21
2019-05-03T15:47:31.321Z,45.46
2019-05-03T15:52:35.298Z,45.92
2019-05-03T15:57:38.683Z,47.23
2019-05-03T16:02:42.040Z,45.14
2019-05-03T16:07:45.448Z,45.14
2019-05-03T16:12:48.810Z,45.40
2019-05-03T16:17:52.164Z,46.14
2019-05-03T16:22:55.518Z,46.48
2019-05-03T16:28:00.515Z,46.71
2019-05-03T16:33:04.683Z,47.19
2019-05-03T16:38:08.167Z,47.71
2019-05-03T16:43:12.545Z,48.03
2019-05-03T16:48:18.306Z,48.68
2019-05-03T16:53:20.975Z,48.11
2019-05-03T16:58:24.719Z,48.84
2019-05-03T17:03:38.417Z,48.67
2019-05-03T17:08:56.858Z,49.74
2019-05-03T17:14:07.112Z,49.51
2019-05-03T17:19:10.571Z,49.76
2019-05-03T17:24:15.489Z,50.11
2019-05-03T17:29:18.985Z,49.83
2019-05-03T17:34:22.364Z,49.94
2019-05-03T17:39:42.555Z,50.58
2019-05-03T17:44:47.266Z,50.66
2019-05-03T17:49:50.794Z,50.77
2019-05-03T17:55:05.058Z,50.90
2019-05-03T18:00:26.206Z,51.23
2019-05-03T18:05:31.185Z,51.78
2019-05-03T18:10:36.196Z,51.78
2019-05-03T18:15:39.621Z,52.59
2019-05-03T18:20:44.935Z,52.59
2019-05-03T18:25:48.188Z,52.92
2019-05-03T18:30:51.612Z,52.83
2019-05-03T18:35:55.178Z,54.14
2019-05-03T18:40:58.475Z,53.54
2019-05-03T18:46:14.247Z,53.44
2019-05-03T18:51:17.776Z,53.38
2019-05-03T18:56:21.130Z,53.77
2019-05-03T19:01:25.323Z,54.23
2019-05-03T19:06:28.950Z,54.25
2019-05-03T19:11:35.224Z,54.78
2019-05-03T19:16:45.398Z,55.12
2019-05-03T19:21:48.393Z,55.67
2019-05-03T19:26:51.884Z,56.43
2019-05-03T19:31:55.334Z,55.45
2019-05-03T19:36:58.653Z,55.50
2019-05-03T19:42:02.049Z,55.43
2019-05-03T19:47:06.842Z,56.72
2019-05-03T19:52:11.986Z,56.78
2019-05-03T19:57:16.973Z,57.20
2019-05-03T20:02:28.193Z,57.16
2019-05-03T20:07:34.652Z,59.50
2019-05-03T20:12:38.163Z,58.84
2019-05-03T20:17:53.580Z,60.89
2019-05-03T20:22:47.699Z,62.20
2019-05-03T20:27:51.261Z,63.58
2019-05-03T20:32:55.521Z,64.00
2019-05-03T20:37:59.021Z,64.47
2019-05-03T20:43:04.855Z,61.87
2019-05-03T20:48:10.070Z,62.25
2019-05-03T20:53:13.502Z,64.25
2019-05-03T20:58:16.890Z,63.66
2019-05-03T21:03:21.349Z,63.46
2019-05-03T21:08:25.508Z,63.19
2019-05-03T21:13:39.211Z,63.68
2019-05-03T21:18:35.747Z,64.37
2019-05-03T21:23:59.358Z,64.19
2019-05-03T21:29:04.624Z,64.32
2019-05-03T21:34:07.778Z,64.46
2019-05-03T21:39:11.146Z,64.80
2019-05-03T21:44:31.010Z,65.70
2019-05-03T21:49:36.071Z,66.64
2019-05-03T21:54:39.422Z,66.45
2019-05-03T21:59:44.679Z,66.48
2019-05-03T22:04:47.876Z,67.78
2019-05-03T22:09:51.800Z,69.94
2019-05-03T22:14:56.829Z,68.65
2019-05-03T22:20:02.093Z,68.58
2019-05-03T22:25:08.106Z,66.08
2019-05-03T22:30:12.457Z,65.79
2019-05-03T22:35:15.815Z,66.50
2019-05-03T22:40:19.298Z,66.10
2019-05-03T22:45:22.648Z,69.36
2019-05-03T22:50:26.002Z,67.73
2019-05-03T22:55:29.481Z,70.41
2019-05-03T23:00:32.811Z,70.80
2019-05-03T23:05:37.310Z,69.50
2019-05-03T23:10:40.895Z,69.75
2019-05-03T23:15:44.256Z,68.86
2019-05-03T23:20:52.213Z,68.97
2019-05-03T23:25:55.530Z,69.48
2019-05-03T23:30:58.879Z,69.68
2019-05-03T23:36:04.406Z,69.83
2019-05-03T23:41:07.656Z,70.92
2019-05-03T23:46:14.487Z,70.61
2019-05-03T23:51:35.517Z,71.23
2019-05-03T23:56:38.976Z,71.07
